Time;durP1;ratioP1;P1;durP2;ratioP2;P2;SDS_P1;SDS_P2;PMS_P1;PMS_P2;Temp;Humidity;BMP_temperature;BMP_pressure;BME280_temperature;BME280_humidity;BME280_pressure;Samples;Min_cycle;Max_cycle;Signal;HPM_P1;HPM_P2
2021/12/14 00:01:24;;;;;;;4.55;4.13;;;;;;;-141.48;100.00;69781.59;5262263;28;20085;-84
2021/12/14 00:03:59;;;;;;;4.72;4.32;;;;;;;-141.48;100.00;69781.59;5262087;28;20028;-83
2021/12/14 00:06:30;;;;;;;3.38;3.28;;;;;;;-141.48;100.00;69781.59;5279660;28;20039;-83
2021/12/14 00:09:02;;;;;;;3.97;3.63;;;;;;;-141.48;100.00;69781.59;5282209;28;20020;-83
2021/12/14 00:15:02;;;;;;;4.32;4.07;;;;;;;-141.48;100.00;69781.59;5283309;28;20036;-83
2021/12/14 00:17:33;;;;;;;5.03;4.60;;;;;;;-141.48;100.00;69781.59;5283207;28;20192;-83
2021/12/14 00:20:12;;;;;;;4.50;4.30;;;;;;;-141.48;100.00;69781.59;5265537;28;20061;-82
2021/12/14 00:25:36;;;;;;;4.78;4.35;;;;;;;-141.48;100.00;69781.59;5283141;28;20378;-83
2021/12/14 00:28:12;;;;;;;3.97;3.67;;;;;;;-141.48;100.00;69781.59;5282749;28;20119;-83
2021/12/14 00:30:45;;;;;;;3.75;3.55;;;;;;;-141.48;100.00;69781.59;5282953;28;20058;-83
2021/12/14 00:33:19;;;;;;;4.03;3.83;;;;;;;-141.48;100.00;69781.59;5282167;28;20031;-83
2021/12/14 00:35:50;;;;;;;4.35;4.00;;;;;;;-141.48;100.00;69781.59;5281829;28;20131;-83
2021/12/14 00:38:22;;;;;;;5.13;4.80;;;;;;;-141.48;100.00;69781.59;5281940;28;20046;-83
2021/12/14 00:40:58;;;;;;;5.43;4.28;;;;;;;-141.48;100.00;69781.59;5282390;28;20162;-83
2021/12/14 00:43:29;;;;;;;4.53;4.15;;;;;;;-141.48;100.00;69781.59;5282182;28;20023;-84
2021/12/14 00:46:00;;;;;;;4.53;4.13;;;;;;;-141.48;100.00;69781.59;5264380;28;20023;-83
2021/12/14 00:48:31;;;;;;;4.45;4.15;;;;;;;-141.48;100.00;69781.59;5282884;28;20579;-81
2021/12/14 00:51:03;;;;;;;5.07;4.78;;;;;;;-141.48;100.00;69781.59;5264357;28;20024;-83
2021/12/14 00:53:34;;;;;;;5.90;5.43;;;;;;;-141.48;100.00;69781.59;5282673;28;20546;-83
2021/12/14 00:56:07;;;;;;;6.57;6.07;;;;;;;-141.48;100.00;69781.59;5283016;28;20032;-83
2021/12/14 00:58:40;;;;;;;5.20;4.90;;;;;;;-141.48;100.00;69781.59;5281986;28;20020;-83
2021/12/14 01:01:29;;;;;;;6.15;5.63;;;;;;;-141.48;100.00;69781.59;5282783;28;20024;-83
2021/12/14 01:04:05;;;;;;;4.90;4.50;;;;;;;-141.48;100.00;69781.59;5282209;28;20024;-83
2021/12/14 01:06:44;;;;;;;5.05;4.65;;;;;;;-141.48;100.00;69781.59;5264500;28;20043;-82
2021/12/14 01:09:18;;;;;;;11.48;5.50;;;;;;;-141.48;100.00;69781.59;5282288;28;20031;-83
2021/12/14 01:11:51;;;;;;;6.43;6.00;;;;;;;-141.48;100.00;69781.59;5281834;28;20024;-84
2021/12/14 01:14:40;;;;;;;4.50;4.30;;;;;;;-141.48;100.00;69781.59;5282042;28;20027;-83
2021/12/14 01:17:26;;;;;;;5.72;5.43;;;;;;;-141.48;100.00;69781.59;5281504;28;20020;-83
2021/12/14 01:20:00;;;;;;;6.68;6.28;;;;;;;-141.48;100.00;69781.59;5281857;28;20020;-82
2021/12/14 01:25:19;;;;;;;8.00;6.82;;;;;;;-141.48;100.00;69781.59;5281840;28;20395;-84
2021/12/14 01:28:00;;;;;;;7.82;7.13;;;;;;;-141.48;100.00;69781.59;5282994;28;20514;-83
2021/12/14 01:30:37;;;;;;;8.45;7.40;;;;;;;-141.48;100.00;69781.59;5264422;28;20024;-84
2021/12/14 01:33:12;;;;;;;8.65;8.10;;;;;;;-141.48;100.00;69781.59;5264191;28;20024;-83
2021/12/14 01:35:45;;;;;;;8.23;7.68;;;;;;;-141.48;100.00;69781.59;5281722;28;20054;-83
2021/12/14 01:38:31;;;;;;;8.25;7.53;;;;;;;-141.48;100.00;69781.59;5263604;28;20475;-84
2021/12/14 01:41:08;;;;;;;9.18;8.57;;;;;;;-141.48;100.00;69781.59;5281703;28;20024;-83
2021/12/14 01:43:47;;;;;;;9.35;8.65;;;;;;;-141.48;100.00;69781.59;5264273;28;20016;-84
2021/12/14 01:46:18;;;;;;;9.17;8.27;;;;;;;-141.48;100.00;69781.59;5282397;28;20031;-84
2021/12/14 01:48:50;;;;;;;10.85;10.05;;;;;;;-141.48;100.00;69781.59;5282479;28;20031;-84
2021/12/14 01:51:21;;;;;;;14.60;10.45;;;;;;;-141.48;100.00;69781.59;5282642;28;20024;-83
2021/12/14 01:53:54;;;;;;;8.32;7.65;;;;;;;-141.48;100.00;69781.59;5281967;28;20028;-84
2021/12/14 01:56:27;;;;;;;12.05;10.98;;;;;;;-141.48;100.00;69781.59;5265447;28;20027;-83
2021/12/14 01:59:05;;;;;;;10.70;9.93;;;;;;;-141.48;100.00;69781.59;5283068;28;20024;-84
2021/12/14 02:01:46;;;;;;;10.60;9.73;;;;;;;-141.48;100.00;69781.59;5284073;28;20030;-84
2021/12/14 02:04:19;;;;;;;13.77;12.65;;;;;;;-141.48;100.00;69781.59;5282093;28;20024;-84
2021/12/14 02:06:57;;;;;;;14.18;13.05;;;;;;;-141.48;100.00;69781.59;5282915;28;20088;-84
2021/12/14 02:09:30;;;;;;;13.68;12.35;;;;;;;-141.48;100.00;69781.59;5264637;28;20066;-84
2021/12/14 02:12:09;;;;;;;12.13;10.85;;;;;;;-141.48;100.00;69781.59;5282722;28;20024;-84
2021/12/14 02:14:40;;;;;;;13.32;12.27;;;;;;;-141.48;100.00;69781.59;5282369;28;20039;-84
2021/12/14 02:17:15;;;;;;;15.40;12.70;;;;;;;-141.48;100.00;69781.59;5282463;28;20035;-84
2021/12/14 02:19:47;;;;;;;16.00;14.57;;;;;;;-141.48;100.00;69781.59;5281985;28;20031;-84
2021/12/14 02:22:18;;;;;;;16.67;15.30;;;;;;;-141.48;100.00;69781.59;5282061;28;20024;-84
2021/12/14 02:24:50;;;;;;;12.32;11.48;;;;;;;-141.48;100.00;69781.59;5264381;28;20016;-84
2021/12/14 02:27:21;;;;;;;19.42;13.77;;;;;;;-141.48;100.00;69781.59;5264192;28;20044;-83
2021/12/14 02:29:51;;;;;;;13.10;11.82;;;;;;;-141.48;100.00;69781.59;5281742;28;20055;-83
2021/12/14 02:32:25;;;;;;;16.27;12.73;;;;;;;-141.48;100.00;69781.59;5262527;28;20345;-83
2021/12/14 02:35:01;;;;;;;12.80;11.73;;;;;;;-141.48;100.00;69781.59;5262497;28;20027;-84
2021/12/14 02:37:42;;;;;;;14.57;13.48;;;;;;;-141.48;100.00;69781.59;5263114;28;20058;-86
2021/12/14 02:40:31;;;;;;;15.07;13.77;;;;;;;-141.48;100.00;69781.59;5281037;28;20028;-83
2021/12/14 02:43:03;;;;;;;14.13;12.93;;;;;;;-141.48;100.00;69781.59;5262363;28;20088;-84
2021/12/14 02:45:34;;;;;;;12.88;11.77;;;;;;;-141.48;100.00;69781.59;5280374;28;20144;-83
2021/12/14 02:48:08;;;;;;;14.93;13.18;;;;;;;-141.48;100.00;69781.59;5262689;28;20036;-83
2021/12/14 02:50:39;;;;;;;13.20;11.07;;;;;;;-141.48;100.00;69781.59;5262129;28;20362;-84
2021/12/14 02:53:12;;;;;;;13.73;12.35;;;;;;;-141.48;100.00;69781.59;5280096;28;20193;-84
2021/12/14 02:55:42;;;;;;;13.45;11.55;;;;;;;-141.48;100.00;69781.59;5262316;28;20431;-84
2021/12/14 02:58:13;;;;;;;15.05;13.75;;;;;;;-141.48;100.00;69781.59;5263101;28;20027;-84
2021/12/14 03:00:49;;;;;;;13.90;12.60;;;;;;;-141.48;100.00;69781.59;5280715;28;20350;-84
2021/12/14 03:03:20;;;;;;;14.75;13.45;;;;;;;-141.48;100.00;69781.59;5279404;28;20024;-83
2021/12/14 03:05:51;;;;;;;13.18;11.88;;;;;;;-141.48;100.00;69781.59;5261217;28;20039;-83
2021/12/14 03:08:24;;;;;;;14.30;13.10;;;;;;;-141.48;100.00;69781.59;5280079;28;20028;-84
2021/12/14 03:11:10;;;;;;;20.33;13.32;;;;;;;-141.48;100.00;69781.59;5261581;28;20047;-83
2021/12/14 03:13:52;;;;;;;16.90;15.20;;;;;;;-141.48;100.00;69781.59;5279037;28;20044;-83
2021/12/14 03:16:26;;;;;;;15.07;13.73;;;;;;;-141.48;100.00;69781.59;5260858;28;20048;-84
2021/12/14 03:18:59;;;;;;;12.07;11.07;;;;;;;-141.48;100.00;69781.59;5279835;28;20035;-82
2021/12/14 03:21:36;;;;;;;15.13;13.15;;;;;;;-141.48;100.00;69781.59;5261841;28;20020;-83
2021/12/14 03:24:09;;;;;;;14.40;13.07;;;;;;;-141.48;100.00;69781.59;5260912;28;20032;-83
2021/12/14 03:26:44;;;;;;;13.95;12.73;;;;;;;-141.48;100.00;69781.59;5260956;28;20031;-84
2021/12/14 03:29:23;;;;;;;14.68;13.35;;;;;;;-141.48;100.00;69781.59;5278977;28;20435;-84
2021/12/14 03:31:57;;;;;;;14.60;13.20;;;;;;;-141.48;100.00;69781.59;5279314;28;20091;-83
2021/12/14 03:34:31;;;;;;;12.35;11.23;;;;;;;-141.48;100.00;69781.59;5261019;28;20291;-83
2021/12/14 03:37:14;;;;;;;13.73;12.38;;;;;;;-141.48;100.00;69781.59;5260554;28;20024;-83
2021/12/14 03:39:58;;;;;;;15.13;13.50;;;;;;;-141.48;100.00;69781.59;5260774;28;20028;-84
2021/12/14 03:42:37;;;;;;;15.23;13.75;;;;;;;-141.48;100.00;69781.59;5278634;28;20032;-83
2021/12/14 03:45:19;;;;;;;13.50;12.50;;;;;;;-141.48;100.00;69781.59;5260769;28;20035;-82
2021/12/14 03:47:54;;;;;;;16.00;14.55;;;;;;;-141.48;100.00;69781.59;5279292;28;20024;-84
2021/12/14 03:50:30;;;;;;;16.27;14.77;;;;;;;-141.48;100.00;69781.59;5279073;28;20024;-82
2021/12/14 03:53:02;;;;;;;14.45;13.15;;;;;;;-141.48;100.00;69781.59;5278830;28;20655;-83
2021/12/14 03:55:40;;;;;;;13.30;12.13;;;;;;;-141.48;100.00;69781.59;5260004;28;20074;-83
2021/12/14 03:58:14;;;;;;;14.13;13.02;;;;;;;-141.48;100.00;69781.59;5278735;28;20028;-83
2021/12/14 04:00:53;;;;;;;13.25;12.00;;;;;;;-141.48;100.00;69781.59;5260541;28;20024;-84
2021/12/14 04:03:27;;;;;;;12.80;11.80;;;;;;;-141.48;100.00;69781.59;5277328;28;20024;-83
2021/12/14 04:05:58;;;;;;;15.10;13.90;;;;;;;-141.48;100.00;69781.59;5277680;28;20051;-83
2021/12/14 04:08:30;;;;;;;12.60;11.50;;;;;;;-141.48;100.00;69781.59;5277563;28;20028;-83
2021/12/14 04:11:04;;;;;;;14.80;12.95;;;;;;;-141.48;100.00;69781.59;5259553;28;20141;-83
2021/12/14 04:13:39;;;;;;;14.95;13.63;;;;;;;-141.48;100.00;69781.59;5276753;28;20050;-84
2021/12/14 04:16:14;;;;;;;14.88;12.60;;;;;;;-141.48;100.00;69781.59;5277253;28;20481;-83
2021/12/14 04:18:45;;;;;;;13.07;11.93;;;;;;;-141.48;100.00;69781.59;5259553;28;20035;-83
2021/12/14 04:21:17;;;;;;;14.63;12.73;;;;;;;-141.48;100.00;69781.59;5277531;28;20032;-83
2021/12/14 04:23:49;;;;;;;13.68;12.43;;;;;;;-141.48;100.00;69781.59;5277675;28;20024;-84
2021/12/14 04:26:20;;;;;;;13.05;11.88;;;;;;;-141.48;100.00;69781.59;5260987;28;20050;-84
2021/12/14 04:28:55;;;;;;;15.30;14.00;;;;;;;-141.48;100.00;69781.59;5279418;28;20498;-84
2021/12/14 04:31:27;;;;;;;13.95;12.88;;;;;;;-141.48;100.00;69781.59;5259256;28;20024;-84
2021/12/14 04:33:57;;;;;;;16.20;14.70;;;;;;;-141.48;100.00;69781.59;5278590;28;20085;-83
2021/12/14 04:36:29;;;;;;;16.27;14.65;;;;;;;-141.48;100.00;69781.59;5258557;28;20024;-83
2021/12/14 04:39:31;;;;;;;16.85;15.25;;;;;;;-141.48;100.00;69781.59;5258722;28;20031;-83
2021/12/14 04:54:00;;;;;;;23.00;15.23;;;;;;;-141.48;100.00;69781.59;5279763;28;20054;-84
2021/12/14 04:56:38;;;;;;;18.60;16.85;;;;;;;-141.48;100.00;69781.59;5265603;28;20031;-84
2021/12/14 04:59:14;;;;;;;17.55;15.85;;;;;;;-141.48;100.00;69781.59;5265929;28;20024;-84
2021/12/14 05:01:47;;;;;;;17.33;15.75;;;;;;;-141.48;100.00;69781.59;5265961;28;20086;-84
2021/12/14 05:04:21;;;;;;;17.67;16.02;;;;;;;-141.48;100.00;69781.59;5283686;28;20044;-84
2021/12/14 05:07:02;;;;;;;20.02;16.52;;;;;;;-141.48;100.00;69781.59;5284469;28;20020;-84
2021/12/14 05:09:37;;;;;;;21.02;18.92;;;;;;;-141.48;100.00;69781.59;5318945;22;20389;-83
2021/12/14 05:12:10;;;;;;;16.75;15.20;;;;;;;-141.48;100.00;69781.59;5280416;28;20028;-83
2021/12/14 05:14:43;;;;;;;16.38;14.85;;;;;;;-141.48;100.00;69781.59;5280667;28;20024;-84
2021/12/14 05:17:25;;;;;;;19.23;17.58;;;;;;;-141.48;100.00;69781.59;5262905;28;20024;-83
2021/12/14 05:19:56;;;;;;;20.65;18.58;;;;;;;-141.48;100.00;69781.59;5281440;28;20024;-85
2021/12/14 05:22:33;;;;;;;16.92;15.20;;;;;;;-141.48;100.00;69781.59;5263361;28;20026;-83
2021/12/14 05:25:08;;;;;;;19.10;17.35;;;;;;;-141.48;100.00;69781.59;5263433;28;20035;-85
2021/12/14 05:27:43;;;;;;;23.25;18.88;;;;;;;-141.48;100.00;69781.59;5262518;28;20020;-83
2021/12/14 05:30:22;;;;;;;17.77;16.08;;;;;;;-141.48;100.00;69781.59;5281368;28;20020;-84
2021/12/14 05:33:06;;;;;;;21.10;19.00;;;;;;;-141.48;100.00;69781.59;5263461;28;20045;-83
2021/12/14 05:35:38;;;;;;;19.80;18.10;;;;;;;-141.48;100.00;69781.59;5279108;28;20024;-84
2021/12/14 05:38:12;;;;;;;18.70;17.00;;;;;;;-141.48;100.00;69781.59;5262322;28;20020;-84
2021/12/14 05:40:57;;;;;;;21.08;18.67;;;;;;;-141.48;100.00;69781.59;5280524;28;20504;-84
2021/12/14 05:43:30;;;;;;;19.27;17.33;;;;;;;-141.48;100.00;69781.59;5279882;28;20077;-83
2021/12/14 05:46:04;;;;;;;22.48;20.25;;;;;;;-141.48;100.00;69781.59;5261471;28;20020;-84
2021/12/14 05:48:36;;;;;;;22.17;20.00;;;;;;;-141.48;100.00;69781.59;5280661;28;20028;-84
2021/12/14 05:51:10;;;;;;;24.42;20.90;;;;;;;-141.48;100.00;69781.59;5280860;28;20020;-85
2021/12/14 05:53:46;;;;;;;23.08;20.63;;;;;;;-141.48;100.00;69781.59;5263268;28;20543;-85
2021/12/14 05:56:22;;;;;;;21.38;19.25;;;;;;;-141.48;100.00;69781.59;5281425;28;20036;-85
2021/12/14 05:58:54;;;;;;;25.90;23.50;;;;;;;-141.48;100.00;69781.59;5286400;28;20035;-84
2021/12/14 06:01:29;;;;;;;23.48;21.00;;;;;;;-141.48;100.00;69781.59;5267710;28;20055;-85
2021/12/14 06:04:03;;;;;;;22.52;20.08;;;;;;;-141.48;100.00;69781.59;5281504;28;20032;-84
2021/12/14 06:06:38;;;;;;;24.52;22.05;;;;;;;-141.48;100.00;69781.59;5281455;28;20031;-84
2021/12/14 06:09:15;;;;;;;23.17;20.95;;;;;;;-141.48;100.00;69781.59;5263710;28;20398;-84
2021/12/14 06:11:49;;;;;;;26.35;21.05;;;;;;;-141.48;100.00;69781.59;5281919;28;20028;-84
2021/12/14 06:14:23;;;;;;;23.40;21.10;;;;;;;-141.48;100.00;69781.59;5263847;28;20420;-85
2021/12/14 06:17:00;;;;;;;21.55;19.45;;;;;;;-141.48;100.00;69781.59;5263894;28;20035;-84
2021/12/14 06:19:34;;;;;;;24.38;21.30;;;;;;;-141.48;100.00;69781.59;5281915;28;20031;-84
2021/12/14 06:22:15;;;;;;;25.58;20.65;;;;;;;-141.48;100.00;69781.59;5281519;28;20039;-84
2021/12/14 06:24:54;;;;;;;24.13;21.83;;;;;;;-141.48;100.00;69781.59;5263279;28;20035;-84
2021/12/14 06:27:27;;;;;;;25.10;22.48;;;;;;;-141.48;100.00;69781.59;5280912;28;20035;-84
2021/12/14 06:30:20;;;;;;;30.20;21.60;;;;;;;-141.48;100.00;69781.59;5281525;28;20016;-83
2021/12/14 06:32:57;;;;;;;26.15;23.40;;;;;;;-141.48;100.00;69781.59;5262831;28;20054;-84
2021/12/14 06:35:35;;;;;;;23.83;21.67;;;;;;;-141.48;100.00;69781.59;5282015;28;20140;-85
2021/12/14 06:38:30;;;;;;;23.60;21.10;;;;;;;-141.48;100.00;69781.59;5287787;28;20024;-85
2021/12/14 06:41:07;;;;;;;23.10;20.98;;;;;;;-141.48;100.00;69781.59;5263700;28;20028;-83
2021/12/14 06:43:49;;;;;;;23.90;21.58;;;;;;;-141.48;100.00;69781.59;5263553;28;20099;-83
2021/12/14 06:46:28;;;;;;;22.20;20.00;;;;;;;-141.48;100.00;69781.59;5286709;28;20048;-84
2021/12/14 06:49:07;;;;;;;23.00;20.73;;;;;;;-141.48;100.00;69781.59;5275696;28;20030;-82
2021/12/14 06:51:41;;;;;;;24.58;22.15;;;;;;;-141.48;100.00;69781.59;5269874;28;20035;-81
2021/12/14 06:54:18;;;;;;;23.10;20.77;;;;;;;-141.48;100.00;69781.59;5279904;28;20028;-83
2021/12/14 06:56:53;;;;;;;24.38;21.98;;;;;;;-141.48;100.00;69781.59;5280689;28;20077;-83
2021/12/14 06:59:25;;;;;;;24.55;22.27;;;;;;;-141.48;100.00;69781.59;5281794;28;20032;-83
2021/12/14 07:02:00;;;;;;;20.85;18.80;;;;;;;-141.48;100.00;69781.59;5262011;28;20401;-81
2021/12/14 07:04:35;;;;;;;23.35;21.30;;;;;;;-141.48;100.00;69781.59;5261979;28;20107;-85
2021/12/14 07:07:10;;;;;;;23.70;21.13;;;;;;;-141.48;100.00;69781.59;5262063;28;20028;-83
2021/12/14 07:09:48;;;;;;;25.58;22.98;;;;;;;-141.48;100.00;69781.59;5262328;28;20028;-82
2021/12/14 07:12:34;;;;;;;23.20;21.08;;;;;;;-141.48;100.00;69781.59;5262140;28;20016;-83
2021/12/14 07:15:23;;;;;;;22.38;20.20;;;;;;;-141.48;100.00;69781.59;5279700;28;20024;-83
2021/12/14 07:18:03;;;;;;;24.15;21.55;;;;;;;-141.48;100.00;69781.59;5260935;28;20032;-84
2021/12/14 07:20:40;;;;;;;25.00;21.05;;;;;;;-141.48;100.00;69781.59;5279004;28;20103;-84
2021/12/14 07:23:29;;;;;;;26.08;21.33;;;;;;;-141.48;100.00;69781.59;5260853;28;20087;-82
2021/12/14 07:26:02;;;;;;;24.67;22.48;;;;;;;-141.48;100.00;69781.59;5279843;28;20095;-83
2021/12/14 07:28:42;;;;;;;25.75;23.05;;;;;;;-141.48;100.00;69781.59;5280277;28;20135;-83
2021/12/14 07:31:22;;;;;;;27.95;25.33;;;;;;;-141.48;100.00;69781.59;5262131;28;20389;-83
2021/12/14 07:33:59;;;;;;;24.23;21.80;;;;;;;-141.48;100.00;69781.59;5262723;28;20026;-83
2021/12/14 07:36:33;;;;;;;21.20;19.23;;;;;;;-141.48;100.00;69781.59;5279593;28;20102;-84
2021/12/14 07:39:08;;;;;;;23.23;20.88;;;;;;;-141.48;100.00;69781.59;5279268;28;20054;-83
2021/12/14 07:41:49;;;;;;;27.80;24.65;;;;;;;-141.48;100.00;69781.59;5279455;28;20054;-85
2021/12/14 07:44:24;;;;;;;25.45;22.10;;;;;;;-141.48;100.00;69781.59;5278366;28;20027;-86
2021/12/14 07:46:59;;;;;;;27.20;24.52;;;;;;;-141.48;100.00;69781.59;5279177;28;20057;-84
2021/12/14 07:49:34;;;;;;;27.55;24.88;;;;;;;-141.48;100.00;69781.59;5279635;28;20020;-86
2021/12/14 07:52:25;;;;;;;29.08;23.67;;;;;;;-141.48;100.00;69781.59;5260744;28;20034;-85
2021/12/14 07:55:24;;;;;;;30.92;26.83;;;;;;;-141.48;100.00;69781.59;5258332;28;20501;-84
2021/12/14 07:57:54;;;;;;;25.80;23.30;;;;;;;-141.48;100.00;69781.59;5277705;28;20040;-85
2021/12/14 08:00:29;;;;;;;28.85;25.98;;;;;;;-141.48;100.00;69781.59;5278233;28;20035;-84
2021/12/14 08:03:02;;;;;;;27.10;24.38;;;;;;;-141.48;100.00;69781.59;5278293;28;20028;-84
2021/12/14 08:05:43;;;;;;;25.58;22.90;;;;;;;-141.48;100.00;69781.59;5259820;28;20055;-84
2021/12/14 08:08:31;;;;;;;28.08;24.60;;;;;;;-141.48;100.00;69781.59;5278554;28;20148;-86
2021/12/14 08:11:27;;;;;;;31.30;26.15;;;;;;;-141.48;100.00;69781.59;5260989;28;20110;-84
2021/12/14 08:14:31;;;;;;;30.17;27.08;;;;;;;-141.48;100.00;69781.59;5277707;28;20046;-84
2021/12/14 08:17:08;;;;;;;28.48;25.60;;;;;;;-141.48;100.00;69781.59;5281927;28;20024;-84
2021/12/14 08:19:41;;;;;;;29.20;25.17;;;;;;;-141.48;100.00;69781.59;5262746;28;20020;-84
2021/12/14 08:22:26;;;;;;;29.38;26.17;;;;;;;-141.48;100.00;69781.59;5280398;28;20028;-87
2021/12/14 08:24:56;;;;;;;27.67;24.67;;;;;;;-141.48;100.00;69781.59;5259849;28;20028;-81
2021/12/14 08:27:29;;;;;;;25.85;23.40;;;;;;;-141.48;100.00;69781.59;5260564;28;20031;-83
2021/12/14 08:30:04;;;;;;;31.45;24.98;;;;;;;-141.48;100.00;69781.59;5281669;28;20024;-84
2021/12/14 08:32:38;;;;;;;27.63;24.65;;;;;;;-141.48;100.00;69781.59;5265150;28;20032;-83
2021/12/14 08:35:13;;;;;;;30.08;26.90;;;;;;;-141.48;100.00;69781.59;5282363;28;20103;-84
2021/12/14 08:37:50;;;;;;;28.42;23.90;;;;;;;-141.48;100.00;69781.59;5282496;28;20208;-83
2021/12/14 08:40:39;;;;;;;26.83;24.17;;;;;;;-141.48;100.00;69781.59;5282390;28;20024;-84
2021/12/14 08:43:24;;;;;;;31.50;28.25;;;;;;;-141.48;100.00;69781.59;5281658;28;20016;-83
2021/12/14 08:46:02;;;;;;;32.25;28.75;;;;;;;-141.48;100.00;69781.59;5281887;28;20031;-84
2021/12/14 08:48:45;;;;;;;26.08;23.48;;;;;;;-141.48;100.00;69781.59;5263854;28;20034;-84
2021/12/14 08:51:25;;;;;;;31.45;28.17;;;;;;;-141.48;100.00;69781.59;5282347;28;20020;-81
2021/12/14 08:54:02;;;;;;;33.63;29.58;;;;;;;-141.48;100.00;69781.59;5263791;28;20028;-82
2021/12/14 08:56:37;;;;;;;29.17;26.30;;;;;;;-141.48;100.00;69781.59;5281692;28;20102;-84
2021/12/14 08:59:08;;;;;;;27.25;24.42;;;;;;;-141.48;100.00;69781.59;5263934;28;20024;-84
2021/12/14 09:01:43;;;;;;;34.58;27.58;;;;;;;-141.48;100.00;69781.59;5282914;28;20031;-83
2021/12/14 09:04:22;;;;;;;31.38;28.13;;;;;;;-141.48;100.00;69781.59;5281117;28;20020;-84
2021/12/14 09:06:59;;;;;;;33.38;27.65;;;;;;;-141.48;100.00;69781.59;5265198;28;20558;-84
2021/12/14 09:09:29;;;;;;;36.45;28.77;;;;;;;-141.48;100.00;69781.59;5261415;28;20025;-84
2021/12/14 09:12:03;;;;;;;31.08;27.63;;;;;;;-141.48;100.00;69781.59;5243386;28;20063;-83
2021/12/14 09:14:34;;;;;;;28.88;26.08;;;;;;;-141.48;100.00;69781.59;5260478;28;20029;-82
2021/12/14 09:17:07;;;;;;;29.95;25.98;;;;;;;-141.48;100.00;69781.59;5260856;28;20024;-84
2021/12/14 09:19:49;;;;;;;35.53;25.77;;;;;;;-141.48;100.00;69781.59;5261203;28;20021;-85
2021/12/14 09:22:31;;;;;;;30.95;26.35;;;;;;;-141.48;100.00;69781.59;5260964;28;20034;-84
2021/12/14 09:25:05;;;;;;;34.72;28.13;;;;;;;-141.48;100.00;69781.59;5260514;28;20032;-84
2021/12/14 09:27:36;;;;;;;28.17;23.05;;;;;;;-141.48;100.00;69781.59;5260877;28;20024;-85
2021/12/14 09:30:11;;;;;;;28.05;23.35;;;;;;;-141.48;100.00;69781.59;5242671;28;20023;-84
2021/12/14 09:32:42;;;;;;;31.25;28.23;;;;;;;-141.48;100.00;69781.59;5260309;28;20104;-83
2021/12/14 09:35:19;;;;;;;36.85;28.20;;;;;;;-141.48;100.00;69781.59;5259483;28;20048;-85
2021/12/14 09:37:51;;;;;;;35.92;30.88;;;;;;;-141.48;100.00;69781.59;5260680;28;20051;-84
2021/12/14 09:40:37;;;;;;;38.78;27.60;;;;;;;-141.48;100.00;69781.59;5260519;28;20031;-82
2021/12/14 09:43:09;;;;;;;35.85;27.63;;;;;;;-141.48;100.00;69781.59;5242369;28;20027;-85
2021/12/14 09:45:46;;;;;;;35.85;28.10;;;;;;;-141.48;100.00;69781.59;5241785;28;20024;-84
2021/12/14 09:48:21;;;;;;;37.45;26.20;;;;;;;-141.48;100.00;69781.59;5244703;28;20039;-85
2021/12/14 09:50:52;;;;;;;31.63;27.48;;;;;;;-141.48;100.00;69781.59;5262514;28;20012;-84
2021/12/14 09:53:25;;;;;;;30.63;26.88;;;;;;;-141.48;100.00;69781.59;5280657;28;20051;-84
2021/12/14 09:55:57;;;;;;;29.10;25.08;;;;;;;-141.48;100.00;69781.59;5280383;28;20024;-83
2021/12/14 09:58:31;;;;;;;33.00;28.70;;;;;;;-141.48;100.00;69781.59;5262474;28;20020;-85
2021/12/14 10:01:17;;;;;;;29.88;26.80;;;;;;;-141.48;100.00;69781.59;5280188;28;20152;-84
2021/12/14 10:03:52;;;;;;;35.55;26.85;;;;;;;-141.48;100.00;69781.59;5280612;28;20024;-83
2021/12/14 10:06:28;;;;;;;30.20;25.25;;;;;;;-141.48;100.00;69781.59;5280772;28;20020;-84
2021/12/14 10:09:05;;;;;;;30.83;27.90;;;;;;;-141.48;100.00;69781.59;5262717;28;20575;-85
2021/12/14 10:14:36;;;;;;;32.38;27.33;;;;;;;-141.48;100.00;69781.59;5280451;28;20082;-83
2021/12/14 10:17:10;;;;;;;30.52;24.33;;;;;;;-141.48;100.00;69781.59;5262385;28;20024;-83
2021/12/14 10:19:42;;;;;;;31.08;27.83;;;;;;;-141.48;100.00;69781.59;5262269;28;20087;-84
2021/12/14 10:22:21;;;;;;;28.02;25.10;;;;;;;-141.48;100.00;69781.59;5280841;28;20107;-85
2021/12/14 10:24:54;;;;;;;32.35;26.05;;;;;;;-141.48;100.00;69781.59;5280319;28;20062;-85
2021/12/14 10:27:27;;;;;;;34.08;26.48;;;;;;;-141.48;100.00;69781.59;5280566;28;20019;-85
2021/12/14 10:30:01;;;;;;;30.88;25.02;;;;;;;-141.48;100.00;69781.59;5281071;28;20016;-85
2021/12/14 10:32:33;;;;;;;34.10;26.50;;;;;;;-141.48;100.00;69781.59;5281248;28;20024;-83
2021/12/14 10:35:26;;;;;;;36.97;27.85;;;;;;;-141.48;100.00;69781.59;5262273;28;20095;-83
2021/12/14 10:38:08;;;;;;;33.15;28.98;;;;;;;-141.48;100.00;69781.59;5281817;28;20028;-84
2021/12/14 10:43:33;;;;;;;31.83;24.40;;;;;;;-141.48;100.00;69781.59;5280020;28;20027;-84
2021/12/14 10:46:19;;;;;;;34.30;24.50;;;;;;;-141.48;100.00;69781.59;5279772;28;20423;-82
2021/12/14 10:48:51;;;;;;;30.05;26.83;;;;;;;-141.48;100.00;69781.59;5280776;28;20030;-83
2021/12/14 10:51:27;;;;;;;30.40;26.40;;;;;;;-141.48;100.00;69781.59;5279440;28;20428;-85
2021/12/14 10:54:00;;;;;;;32.13;27.88;;;;;;;-141.48;100.00;69781.59;5279792;28;20027;-85
2021/12/14 10:56:43;;;;;;;29.58;26.67;;;;;;;-141.48;100.00;69781.59;5261317;28;20024;-83
2021/12/14 10:59:18;;;;;;;28.77;25.70;;;;;;;-141.48;100.00;69781.59;5261759;28;20050;-85
2021/12/14 11:01:50;;;;;;;34.22;26.15;;;;;;;-141.48;100.00;69781.59;5279838;28;20031;-82
2021/12/14 11:04:38;;;;;;;29.63;26.30;;;;;;;-141.48;100.00;69781.59;5280123;28;20024;-81
2021/12/14 11:07:11;;;;;;;30.13;26.48;;;;;;;-141.48;100.00;69781.59;5279793;28;20078;-81
2021/12/14 11:09:43;;;;;;;35.03;27.83;;;;;;;-141.48;100.00;69781.59;5278338;22;20036;-66
2021/12/14 11:12:32;;;;;;;30.85;27.02;;;;;;;-141.48;100.00;69781.59;5250171;28;20028;-63
2021/12/14 11:15:14;;;;;;;29.08;23.80;;;;;;;-141.48;100.00;69781.59;5250122;28;20032;-63
2021/12/14 11:20:43;;;;;;;29.92;26.42;;;;;;;-141.48;100.00;69781.59;5268278;28;20525;-65
2021/12/14 11:23:14;;;;;;;31.85;28.48;;;;;;;-141.48;100.00;69781.59;5249956;28;20135;-63
2021/12/14 11:26:02;;;;;;;28.77;25.67;;;;;;;-141.48;100.00;69781.59;5249769;28;20127;-64
2021/12/14 11:28:40;;;;;;;29.10;26.05;;;;;;;-141.48;100.00;69781.59;5249516;28;20077;-64
2021/12/14 11:31:31;;;;;;;32.45;28.27;;;;;;;-141.48;100.00;69781.59;5249514;28;20020;-64
2021/12/14 11:34:11;;;;;;;30.05;25.58;;;;;;;-141.48;100.00;69781.59;5248187;28;20028;-64
2021/12/14 11:36:53;;;;;;;33.00;24.63;;;;;;;-141.48;100.00;69781.59;5248224;28;20020;-63
2021/12/14 11:39:28;;;;;;;27.90;25.25;;;;;;;-141.48;100.00;69781.59;5248391;28;20369;-63
2021/12/14 11:42:06;;;;;;;42.63;25.88;;;;;;;-141.48;100.00;69781.59;5248397;28;20496;-63
2021/12/14 11:44:47;;;;;;;38.72;28.35;;;;;;;-141.48;100.00;69781.59;5265968;28;20055;-64
2021/12/14 11:50:03;;;;;;;30.15;26.00;;;;;;;-141.48;100.00;69781.59;5266454;28;20024;-63
2021/12/14 11:53:02;;;;;;;27.92;25.15;;;;;;;-141.48;100.00;69781.59;5248477;28;20106;-63
2021/12/14 11:55:51;;;;;;;26.65;24.05;;;;;;;-141.48;100.00;69781.59;5248125;28;20032;-63
2021/12/14 11:58:43;;;;;;;21.67;19.50;;;;;;;-141.48;100.00;69781.59;5248563;28;20255;-64
2021/12/14 12:01:27;;;;;;;29.55;26.23;;;;;;;-141.48;100.00;69781.59;5248231;28;20020;-63
2021/12/14 12:04:14;;;;;;;28.92;23.58;;;;;;;-141.48;100.00;69781.59;5266765;28;20032;-63
2021/12/14 12:09:42;;;;;;;27.83;23.58;;;;;;;-141.48;100.00;69781.59;5270463;28;20093;-64
2021/12/14 12:12:23;;;;;;;30.00;27.13;;;;;;;-141.48;100.00;69781.59;5252640;28;20020;-64
2021/12/14 12:15:03;;;;;;;26.13;23.55;;;;;;;-141.48;100.00;69781.59;5251998;28;20020;-64